| time (UTC) | temp F | wind direction | speed MPH | gust MPH | rain 1hr in | rain 24hr in | rain mn in | humidity % | barometer mb |
| 20260504130701 | 58 | 0.0 | 0.0 | 0.00 | 0.00 | 0.00 | 57 | ||
| 20260504130612 | 58 | 0.0 | 0.0 | 0.00 | 0.00 | 0.00 | 57 | ||
| 20260504130522 | 58 | 0.0 | 0.0 | 0.00 | 0.00 | 0.00 | 57 | ||
| 20260504130342 | 57 | 0.0 | 0.0 | 0.00 | 0.00 | 0.00 | 57 | ||
| 20260504130251 | 57 | 0.0 | 0.0 | 0.00 | 0.00 | 0.00 | 58 | ||
| 20260504130203 | 57 | 0.0 | 0.0 | 0.00 | 0.00 | 0.00 | 59 | ||
| 20260504120253 | 44 | 0.0 | 0.0 | 0.00 | 0.00 | 0.00 | 70 | ||
| 20260504120201 | 44 | 0.0 | 0.0 | 0.00 | 0.00 | 0.00 | 70 | ||
| 20260504110702 | 39 | 0.0 | 0.0 | 0.00 | 0.00 | 0.00 | 72 | ||
| 20260504110202 | 39 | 0.0 | 0.0 | 0.00 | 0.00 | 0.00 | 71 | ||
| 20260504081752 | 38 | 0.0 | 0.0 | 0.00 | 0.00 | 0.00 | 66 | ||
| 20260504081252 | 38 | 0.0 | 0.0 | 0.00 | 0.00 | 0.00 | 66 | ||
| 20260504080202 | 38 | 0.0 | 0.0 | 0.00 | 0.00 | 0.00 | 66 | ||
| 20260504070202 | 39 | 0.0 | 0.0 | 0.00 | 0.00 | 0.00 | 64 | ||
| 20260504050252 | 42 | 0.0 | 0.0 | 0.00 | 0.00 | 0.00 | 59 | ||
| 20260504045432 | 42 | 0.0 | 0.0 | 0.00 | 0.00 | 0.00 | 59 | ||
| 20260504044932 | 42 | 0.0 | 0.0 | 0.00 | 0.00 | 0.00 | 59 | ||
| 20260504043932 | 42 | 0.0 | 0.0 | 0.00 | 0.00 | 0.00 | 59 | ||
| 20260504043702 | 42 | 0.0 | 0.0 | 0.00 | 0.00 | 0.00 | 59 | ||
| 20260504043432 | 43 | 0.0 | 0.0 | 0.00 | 0.00 | 0.00 | 58 | ||
| 20260504043022 | 43 | 0.0 | 0.0 | 0.00 | 0.00 | 0.00 | 57 | ||
| 20260504042842 | 43 | 0.0 | 0.0 | 0.00 | 0.00 | 0.00 | 57 | ||
| 20260504042342 | 43 | 0.0 | 0.0 | 0.00 | 0.00 | 0.00 | 57 | ||
| 20260504041752 | 43 | 0.0 | 0.0 | 0.00 | 0.00 | 0.00 | 57 | ||
| 20260504041522 | 43 | 0.0 | 0.0 | 0.00 | 0.00 | 0.00 | 56 | ||
| 20260504041432 | 44 | 0.0 | 0.0 | 0.00 | 0.00 | 0.00 | 56 | ||
| 20260504040342 | 44 | 0.0 | 0.0 | 0.00 | 0.00 | 0.00 | 56 | ||
| 20260504040112 | 44 | 0.0 | 0.0 | 0.00 | 0.00 | 0.00 | 56 | ||
| 20260504035842 | 44 | 0.0 | 0.0 | 0.00 | 0.00 | 0.00 | 56 | ||
| 20260504035522 | 44 | 0.0 | 0.0 | 0.00 | 0.00 | 0.00 | 56 | ||
| 20260504035112 | 44 | 0.0 | 0.0 | 0.00 | 0.00 | 0.00 | 56 | ||
| 20260504034843 | 44 | 0.0 | 0.0 | 0.00 | 0.00 | 0.00 | 55 | ||
| 20260504034022 | 44 | 0.0 | 0.0 | 0.00 | 0.00 | 0.00 | 55 | ||
| 20260504033702 | 45 | 0.0 | 0.0 | 0.00 | 0.00 | 0.00 | 54 | ||
| 20260504033522 | 45 | 0.0 | 0.0 | 0.00 | 0.00 | 0.00 | 54 | ||
| 20260504033252 | 45 | 0.0 | 0.0 | 0.00 | 0.00 | 0.00 | 54 | ||
| 20260504033202 | 45 | 0.0 | 0.0 | 0.00 | 0.00 | 0.00 | 54 | ||
| 20260504032522 | 45 | 0.0 | 0.0 | 0.00 | 0.00 | 0.00 | 54 | ||
| 20260504031842 | 46 | 0.0 | 0.0 | 0.00 | 0.00 | 0.00 | 54 | ||
| 20260504031022 | 46 | 0.0 | 0.0 | 0.00 | 0.00 | 0.00 | 54 | ||
| 20260504030752 | 46 | 0.0 | 0.0 | 0.00 | 0.00 | 0.00 | 53 | ||
| 20260504030202 | 46 | 0.0 | 0.0 | 0.00 | 0.00 | 0.00 | 53 | ||
| 20260504030111 | 46 | 0.0 | 0.0 | 0.00 | 0.00 | 0.00 | 53 | ||
| 20260504025521 | 46 | 0.0 | 0.0 | 0.00 | 0.00 | 0.00 | 53 | ||
| 20260504025432 | 46 | 0.0 | 0.0 | 0.00 | 0.00 | 0.00 | 52 | ||
| 20260504024702 | 47 | 0.0 | 0.0 | 0.00 | 0.00 | 0.00 | 52 | ||
| 20260504024522 | 47 | 0.0 | 0.0 | 0.00 | 0.00 | 0.00 | 51 | ||
| 20260504024342 | 47 | 0.0 | 0.0 | 0.00 | 0.00 | 0.00 | 51 | ||
| 20260504023752 | 47 | 0.0 | 0.0 | 0.00 | 0.00 | 0.00 | 51 | ||
| 20260504023432 | 47 | 0.0 | 0.0 | 0.00 | 0.00 | 0.00 | 51 | ||
| 20260504023202 | 47 | 0.0 | 0.0 | 0.00 | 0.00 | 0.00 | 51 | ||
| 20260504022932 | 48 | 0.0 | 0.0 | 0.00 | 0.00 | 0.00 | 51 | ||
| 20260504022522 | 48 | 0.0 | 0.0 | 0.00 | 0.00 | 0.00 | 51 | ||
| 20260504022342 | 48 | 0.0 | 0.0 | 0.00 | 0.00 | 0.00 | 50 | ||
| 20260504021932 | 48 | 0.0 | 0.0 | 0.00 | 0.00 | 0.00 | 50 | ||
| 20260504021522 | 48 | 0.0 | 0.0 | 0.00 | 0.00 | 0.00 | 50 | ||
| 20260504021342 | 48 | 0.0 | 0.0 | 0.00 | 0.00 | 0.00 | 50 | ||
| 20260504021202 | 48 | 0.0 | 0.0 | 0.00 | 0.00 | 0.00 | 49 | ||
| 20260504021023 | 49 | 0.0 | 0.0 | 0.00 | 0.00 | 0.00 | 49 | ||
| 20260504020753 | 49 | 0.0 | 0.0 | 0.00 | 0.00 | 0.00 | 49 | ||
| 20260504020432 | 49 | 0.0 | 0.0 | 0.00 | 0.00 | 0.00 | 49 | ||
| 20260504015933 | 49 | 0.0 | 0.0 | 0.00 | 0.00 | 0.00 | 49 | ||
| 20260504015341 | 49 | 0.0 | 0.0 | 0.00 | 0.00 | 0.00 | 49 | ||
| 20260504015202 | 49 | 0.0 | 0.0 | 0.00 | 0.00 | 0.00 | 49 | ||
| 20260504015022 | 50 | 0.0 | 0.0 | 0.00 | 0.00 | 0.00 | 49 | ||
| 20260504014702 | 50 | 0.0 | 0.0 | 0.00 | 0.00 | 0.00 | 49 | ||
| 20260504014522 | 50 | 0.0 | 0.0 | 0.00 | 0.00 | 0.00 | 48 | ||
| 20260504014252 | 50 | 0.0 | 0.0 | 0.00 | 0.00 | 0.00 | 47 | ||
| 20260504014202 | 50 | 0.0 | 0.0 | 0.00 | 0.00 | 0.00 | 47 | ||
| 20260504013932 | 51 | 0.0 | 0.0 | 0.00 | 0.00 | 0.00 | 47 | ||
| 20260504013112 | 51 | 0.0 | 0.0 | 0.00 | 0.00 | 0.00 | 47 | ||
| 20260504012752 | 51 | 0.0 | 0.0 | 0.00 | 0.00 | 0.00 | 47 | ||
| 20260504012343 | 51 | 0.0 | 0.0 | 0.00 | 0.00 | 0.00 | 47 | ||
| 20260504012201 | 51 | 0.0 | 0.0 | 0.00 | 0.00 | 0.00 | 46 | ||
| 20260504011932 | 51 | 0.0 | 0.0 | 0.00 | 0.00 | 0.00 | 46 | ||
| 20260504011751 | 51 | 0.0 | 0.0 | 0.00 | 0.00 | 0.00 | 46 | ||
| 20260504011522 | 52 | 0.0 | 0.0 | 0.00 | 0.00 | 0.00 | 46 | ||
| 20260504011341 | 52 | 0.0 | 0.0 | 0.00 | 0.00 | 0.00 | 46 | ||
| 20260504011022 | 52 | 0.0 | 0.0 | 0.00 | 0.00 | 0.00 | 46 | ||
| 20260504010752 | 52 | 0.0 | 0.0 | 0.00 | 0.00 | 0.00 | 45 | ||
| 20260504010342 | 52 | 0.0 | 0.0 | 0.00 | 0.00 | 0.00 | 45 | ||
| 20260504010022 | 52 | 0.0 | 0.0 | 0.00 | 0.00 | 0.00 | 45 | ||
| 20260504005932 | 53 | 0.0 | 0.0 | 0.00 | 0.00 | 0.00 | 45 | ||
| 20260504005702 | 53 | 0.0 | 0.0 | 0.00 | 0.00 | 0.00 | 45 | ||
| 20260504005342 | 53 | 0.0 | 0.0 | 0.00 | 0.00 | 0.00 | 45 | ||
| 20260504005252 | 53 | 0.0 | 0.0 | 0.00 | 0.00 | 0.00 | 45 | ||
| 20260504005112 | 53 | 0.0 | 0.0 | 0.00 | 0.00 | 0.00 | 45 | ||
| 20260504004842 | 53 | 0.0 | 0.0 | 0.00 | 0.00 | 0.00 | 45 | ||
| 20260504004522 | 53 | 0.0 | 0.0 | 0.00 | 0.00 | 0.00 | 45 | ||
| 20260504003932 | 53 | 0.0 | 0.0 | 0.00 | 0.00 | 0.00 | 45 | ||
| 20260504003702 | 53 | 0.0 | 0.0 | 0.00 | 0.00 | 0.00 | 45 | ||
| 20260504003432 | 54 | 0.0 | 0.0 | 0.00 | 0.00 | 0.00 | 43 | ||
| 20260504003202 | 54 | 0.0 | 0.0 | 0.00 | 0.00 | 0.00 | 43 | ||
| 20260504002842 | 54 | 0.0 | 0.0 | 0.00 | 0.00 | 0.00 | 43 | ||
| 20260504002252 | 54 | 0.0 | 0.0 | 0.00 | 0.00 | 0.00 | 43 | ||
| 20260504001702 | 54 | 0.0 | 0.0 | 0.00 | 0.00 | 0.00 | 43 | ||
| 20260504000751 | 55 | 0.0 | 0.0 | 0.00 | 0.00 | 0.00 | 43 | ||
| 20260504000023 | 55 | 0.0 | 0.0 | 0.00 | 0.00 | 0.00 | 43 | ||
| 20260503235022 | 55 | 0.0 | 0.0 | 0.00 | 0.00 | 0.00 | 43 | ||
| 20260503234202 | 55 | 0.0 | 0.0 | 0.00 | 0.00 | 0.00 | 43 | ||
| 20260503233702 | 55 | 0.0 | 0.0 | 0.00 | 0.00 | 0.00 | 43 | ||
| 20260503232752 | 55 | 0.0 | 0.0 | 0.00 | 0.00 | 0.00 | 43 | ||
| 20260503231702 | 55 | 0.0 | 0.0 | 0.00 | 0.00 | 0.00 | 43 | ||
| 20260503230612 | 55 | 0.0 | 0.0 | 0.00 | 0.00 | 0.00 | 43 | ||
| 20260503230252 | 55 | 0.0 | 0.0 | 0.00 | 0.00 | 0.00 | 42 | ||
| 20260503225522 | 56 | 0.0 | 0.0 | 0.00 | 0.00 | 0.00 | 42 | ||
| 20260503225252 | 56 | 0.0 | 0.0 | 0.00 | 0.00 | 0.00 | 42 | ||
| 20260503224522 | 56 | 0.0 | 0.0 | 0.00 | 0.00 | 0.00 | 42 | ||
| 20260503214932 | 56 | 0.0 | 0.0 | 0.00 | 0.00 | 0.00 | 43 | ||
| 20260503213933 | 56 | 0.0 | 0.0 | 0.00 | 0.00 | 0.00 | 44 | ||
| 20260503213342 | 56 | 0.0 | 0.0 | 0.00 | 0.00 | 0.00 | 44 | ||
| 20260503212932 | 56 | 0.0 | 0.0 | 0.00 | 0.00 | 0.00 | 44 | ||
| 20260503212752 | 56 | 0.0 | 0.0 | 0.00 | 0.00 | 0.00 | 44 | ||
| 20260503212252 | 56 | 0.0 | 0.0 | 0.00 | 0.00 | 0.00 | 44 | ||
| 20260503211202 | 56 | 0.0 | 0.0 | 0.00 | 0.00 | 0.00 | 44 | ||
| 20260503210612 | 56 | 0.0 | 0.0 | 0.00 | 0.00 | 0.00 | 44 | ||
| 20260503210022 | 56 | 0.0 | 0.0 | 0.00 | 0.00 | 0.00 | 44 | ||
| 20260503205842 | 56 | 0.0 | 0.0 | 0.00 | 0.00 | 0.00 | 44 | ||
| 20260503205752 | 56 | 0.0 | 0.0 | 0.00 | 0.00 | 0.00 | 45 | ||
| 20260503205522 | 55 | 0.0 | 0.0 | 0.00 | 0.00 | 0.00 | 44 | ||
| 20260503205112 | 55 | 0.0 | 0.0 | 0.00 | 0.00 | 0.00 | 45 | ||
| 20260503205022 | 55 | 0.0 | 0.0 | 0.00 | 0.00 | 0.00 | 45 | ||
| 20260503204112 | 55 | 0.0 | 0.0 | 0.00 | 0.00 | 0.00 | 45 | ||
| 20260503203932 | 55 | 0.0 | 0.0 | 0.00 | 0.00 | 0.00 | 45 | ||
| 20260503203842 | 55 | 0.0 | 0.0 | 0.00 | 0.00 | 0.00 | 45 | ||
| 20260503203022 | 55 | 0.0 | 0.0 | 0.00 | 0.00 | 0.00 | 45 | ||
| 20260503202932 | 55 | 0.0 | 0.0 | 0.00 | 0.00 | 0.00 | 45 | ||
| 20260503202702 | 55 | 0.0 | 0.0 | 0.00 | 0.00 | 0.00 | 45 | ||
| 20260503202432 | 55 | 0.0 | 0.0 | 0.00 | 0.00 | 0.00 | 45 | ||
| 20260503201702 | 55 | 0.0 | 0.0 | 0.00 | 0.00 | 0.00 | 45 | ||
| 20260503201522 | 56 | 0.0 | 0.0 | 0.00 | 0.00 | 0.00 | 45 | ||
| 20260503201342 | 56 | 0.0 | 0.0 | 0.00 | 0.00 | 0.00 | 45 | ||
| 20260503200342 | 56 | 0.0 | 0.0 | 0.00 | 0.00 | 0.00 | 45 | ||
| 20260503200112 | 55 | 0.0 | 0.0 | 0.00 | 0.00 | 0.00 | 45 | ||
| 20260503195112 | 55 | 0.0 | 0.0 | 0.00 | 0.00 | 0.00 | 45 | ||
| 20260503194933 | 55 | 0.0 | 0.0 | 0.00 | 0.00 | 0.00 | 46 | ||
| 20260503193932 | 55 | 0.0 | 0.0 | 0.00 | 0.00 | 0.00 | 46 | ||
| 20260503193702 | 55 | 0.0 | 0.0 | 0.00 | 0.00 | 0.00 | 46 | ||
| 20260503193612 | 55 | 0.0 | 0.0 | 0.00 | 0.00 | 0.00 | 47 | ||
| 20260503193432 | 55 | 0.0 | 0.0 | 0.00 | 0.00 | 0.00 | 46 | ||
| 20260503192932 | 55 | 0.0 | 0.0 | 0.00 | 0.00 | 0.00 | 46 | ||
| 20260503192752 | 55 | 0.0 | 0.0 | 0.00 | 0.00 | 0.00 | 46 | ||
| 20260503192432 | 55 | 0.0 | 0.0 | 0.00 | 0.00 | 0.00 | 47 | ||
| 20260503192342 | 55 | 0.0 | 0.0 | 0.00 | 0.00 | 0.00 | 47 | ||
| 20260503192202 | 55 | 0.0 | 0.0 | 0.00 | 0.00 | 0.00 | 47 | ||
| 20260503192022 | 55 | 0.0 | 0.0 | 0.00 | 0.00 | 0.00 | 47 | ||
| 20260503191702 | 55 | 0.0 | 0.0 | 0.00 | 0.00 | 0.00 | 47 | ||
| 20260503191612 | 55 | 0.0 | 0.0 | 0.00 | 0.00 | 0.00 | 46 | ||
| 20260503191522 | 55 | 0.0 | 0.0 | 0.00 | 0.00 | 0.00 | 47 | ||
| 20260503191432 | 55 | 0.0 | 0.0 | 0.00 | 0.00 | 0.00 | 47 | ||
| 20260503191202 | 55 | 0.0 | 0.0 | 0.00 | 0.00 | 0.00 | 46 | ||
| 20260503190842 | 55 | 0.0 | 0.0 | 0.00 | 0.00 | 0.00 | 47 | ||
| 20260503190612 | 55 | 0.0 | 0.0 | 0.00 | 0.00 | 0.00 | 47 | ||
| 20260503185842 | 55 | 0.0 | 0.0 | 0.00 | 0.00 | 0.00 | 47 | ||
| 20260503185701 | 56 | 0.0 | 0.0 | 0.00 | 0.00 | 0.00 | 47 | ||
| 20260503185431 | 56 | 0.0 | 0.0 | 0.00 | 0.00 | 0.00 | 47 | ||
| 20260503185342 | 56 | 0.0 | 0.0 | 0.00 | 0.00 | 0.00 | 47 | ||
| 20260503185022 | 56 | 0.0 | 0.0 | 0.00 | 0.00 | 0.00 | 47 | ||
| 20260503184702 | 56 | 0.0 | 0.0 | 0.00 | 0.00 | 0.00 | 47 | ||
| 20260503184522 | 56 | 0.0 | 0.0 | 0.00 | 0.00 | 0.00 | 47 | ||
| 20260503184202 | 55 | 0.0 | 0.0 | 0.00 | 0.00 | 0.00 | 47 | ||
| 20260503184022 | 55 | 0.0 | 0.0 | 0.00 | 0.00 | 0.00 | 48 | ||
| 20260503183342 | 55 | 0.0 | 0.0 | 0.00 | 0.00 | 0.00 | 48 | ||
| 20260503183202 | 55 | 0.0 | 0.0 | 0.00 | 0.00 | 0.00 | 48 | ||
| 20260503182932 | 55 | 0.0 | 0.0 | 0.00 | 0.00 | 0.00 | 48 | ||
| 20260503182702 | 55 | 0.0 | 0.0 | 0.00 | 0.00 | 0.00 | 48 | ||
| 20260503182522 | 55 | 0.0 | 0.0 | 0.00 | 0.00 | 0.00 | 48 | ||
| 20260503182343 | 55 | 0.0 | 0.0 | 0.00 | 0.00 | 0.00 | 48 | ||
| 20260503182202 | 55 | 0.0 | 0.0 | 0.00 | 0.00 | 0.00 | 49 | ||
| 20260503182022 | 55 | 0.0 | 0.0 | 0.00 | 0.00 | 0.00 | 48 | ||
| 20260503181611 | 55 | 0.0 | 0.0 | 0.00 | 0.00 | 0.00 | 48 | ||
| 20260503181252 | 55 | 0.0 | 0.0 | 0.00 | 0.00 | 0.00 | 48 | ||
| 20260503181202 | 55 | 0.0 | 0.0 | 0.00 | 0.00 | 0.00 | 49 | ||
| 20260503181111 | 55 | 0.0 | 0.0 | 0.00 | 0.00 | 0.00 | 49 | ||
| 20260503180612 | 55 | 0.0 | 0.0 | 0.00 | 0.00 | 0.00 | 49 | ||
| 20260503180251 | 55 | 0.0 | 0.0 | 0.00 | 0.00 | 0.00 | 49 | ||
| 20260503175842 | 54 | 0.0 | 0.0 | 0.00 | 0.00 | 0.00 | 49 | ||
| 20260503175202 | 54 | 0.0 | 0.0 | 0.00 | 0.00 | 0.00 | 49 | ||
| 20260503174932 | 54 | 0.0 | 0.0 | 0.00 | 0.00 | 0.00 | 49 | ||
| 20260503174842 | 55 | 0.0 | 0.0 | 0.00 | 0.00 | 0.00 | 49 | ||
| 20260503174702 | 54 | 0.0 | 0.0 | 0.00 | 0.00 | 0.00 | 49 | ||
| 20260503174612 | 54 | 0.0 | 0.0 | 0.00 | 0.00 | 0.00 | 49 | ||
| 20260503173842 | 54 | 0.0 | 0.0 | 0.00 | 0.00 | 0.00 | 49 | ||
| 20260503173521 | 55 | 0.0 | 0.0 | 0.00 | 0.00 | 0.00 | 50 | ||
| 20260503173342 | 55 | 0.0 | 0.0 | 0.00 | 0.00 | 0.00 | 50 | ||
| 20260503172932 | 54 | 0.0 | 0.0 | 0.00 | 0.00 | 0.00 | 50 | ||
| 20260503172842 | 54 | 0.0 | 0.0 | 0.00 | 0.00 | 0.00 | 50 | ||
| 20260503172702 | 54 | 0.0 | 0.0 | 0.00 | 0.00 | 0.00 | 50 | ||
| 20260503172522 | 54 | 0.0 | 0.0 | 0.00 | 0.00 | 0.00 | 50 | ||
| 20260503172202 | 54 | 0.0 | 0.0 | 0.00 | 0.00 | 0.00 | 50 | ||
| 20260503171932 | 53 | 0.0 | 0.0 | 0.00 | 0.00 | 0.00 | 51 | ||
| 20260503171842 | 53 | 0.0 | 0.0 | 0.00 | 0.00 | 0.00 | 51 | ||
| 20260503171752 | 53 | 0.0 | 0.0 | 0.00 | 0.00 | 0.00 | 51 | ||
| 20260503171432 | 53 | 0.0 | 0.0 | 0.00 | 0.00 | 0.00 | 51 | ||
| 20260503171342 | 53 | 0.0 | 0.0 | 0.00 | 0.00 | 0.00 | 51 | ||
| 20260503171022 | 53 | 0.0 | 0.0 | 0.00 | 0.00 | 0.00 | 51 | ||
| 20260503170842 | 53 | 0.0 | 0.0 | 0.00 | 0.00 | 0.00 | 52 | ||
| 20260503150252 | 52 | 0.0 | 0.0 | 0.00 | 0.00 | 0.00 | 56 | ||
| 20260503140252 | 49 | 0.0 | 0.0 | 0.00 | 0.00 | 0.00 | 58 |